Bosporus — V2QY — position and weather

sailwx.info

Track history (hours):
 
Tides and Currents Weather Stations Pressure Air Temp Water Temp Dewpoint Dewpoint Depression Visibility Wind Speed Wind Dir Waves Ship Positions

Bosporus

Last reported at 2014-Dec-18 09:17 UTC. Time now 2014-Dec-18 13:30 UTC.
Position N 35°59' W 005°15'.

Length 100 m; draft 4.8 m.

Type: Cargo ship. MMSI: 304010802.

Date/timePositionNaut miles runAvg speedWind from/ knotsBaromVisibWave heightAir tempDewpointWater temp
2014-Dec-18 09:17N 35°59' W 005°15'  
2014-Dec-13 23:28N 36°01' W 005°22'399 9.5
2014-Dec-12 05:33N 39°57' E 001°26'1110.6
2014-Dec-12 04:33N 40°06' E 001°34'1110.6
2014-Dec-12 03:33N 40°15' E 001°41'1010.5
2014-Dec-12 02:33N 40°24' E 001°49'1010.4
2014-Dec-12 01:33N 40°33' E 001°56'1010.5
2014-Dec-12 00:33N 40°41' E 002°04'1110.6
2014-Dec-11 23:32N 40°50' E 002°12'1511.2
2014-Dec-11 22:10N 41°03' E 002°23'1811.0
2014-Dec-11 20:30N 41°18' E 002°37'9 9.8
2014-Dec-11 19:33N 41°25' E 002°45'1410.3
2014-Dec-11 18:14N 41°35' E 002°57'1910.2
2014-Dec-11 16:24N 41°50' E 003°12'9 9.5
2014-Dec-11 15:25N 41°59' E 003°16'2010.2
2014-Dec-11 13:25N 42°19' E 003°21'1513.5
2014-Dec-11 12:18N 42°33' E 003°17'8 8.2
2014-Dec-11 11:19N 42°41' E 003°15'810.7
2014-Dec-11 10:33N 42°50' E 003°13'1110.8
2014-Dec-11 09:33N 43°00' E 003°15'1010.2
2014-Dec-11 08:33N 43°08' E 003°24'9 9.0
2014-Dec-11 07:32N 43°11' E 003°35'1010.2
2014-Dec-11 06:33N 43°16' E 003°48'10 9.7
2014-Dec-11 05:34N 43°17' E 004°01'10 9.7
2014-Dec-11 04:30N 43°17' E 004°15'9 9.5
2014-Dec-11 03:33N 43°17' E 004°27'10 9.6
2014-Dec-11 02:33N 43°17' E 004°41'9 9.3
2014-Dec-11 01:33N 43°18' E 004°53'7 7.3
2014-Dec-11 00:33N 43°26' E 004°53'0 0.0
2014-Dec-10 23:33N 43°26' E 004°53'0 0.0
2014-Dec-10 22:33N 43°26' E 004°53'0 0.0
2014-Dec-10 21:33N 43°26' E 004°53'0 0.0
2014-Dec-10 20:24N 43°26' E 004°53'0 0.0
2014-Dec-10 19:15N 43°26' E 004°53'0 0.0
2014-Dec-10 15:27N 43°26' E 004°53'0 0.0
2014-Dec-10 14:33N 43°26' E 004°53'0 0.0
2014-Dec-10 13:15N 43°26' E 004°53'0 0.0
2014-Dec-10 12:27N 43°26' E 004°53'0 0.0
2014-Dec-10 11:33N 43°26' E 004°53'0 0.0
2014-Dec-10 10:27N 43°26' E 004°53'0 0.0
2014-Dec-10 09:21N 43°26' E 004°53'0 0.0
2014-Dec-10 08:30N 43°26' E 004°53'0 0.0
2014-Dec-10 07:33N 43°26' E 004°53'0 0.0
2014-Dec-10 06:33N 43°26' E 004°53'0 0.0
2014-Dec-10 05:33N 43°26' E 004°53'0 0.0
2014-Dec-10 04:33N 43°26' E 004°53'0 0.0
2014-Dec-10 03:33N 43°26' E 004°53'0 0.0
2014-Dec-10 02:33N 43°26' E 004°53'0 0.0
2014-Dec-10 01:09N 43°26' E 004°53'0 0.0
2014-Dec-10 00:30N 43°26' E 004°53'0 0.0
2014-Dec-09 23:33N 43°26' E 004°53'0 0.0
2014-Dec-09 22:33N 43°26' E 004°53'0 0.0
2014-Dec-09 21:33N 43°26' E 004°53'0 0.0
2014-Dec-09 20:30N 43°26' E 004°53'0 0.0
2014-Dec-09 19:27N 43°26' E 004°53'0 0.0
2014-Dec-09 18:09N 43°26' E 004°53'0 0.0
2014-Dec-09 17:33N 43°26' E 004°53'0 0.0
2014-Dec-09 16:33N 43°26' E 004°53'0 0.0
2014-Dec-09 15:33N 43°26' E 004°53'0 0.0
2014-Dec-09 14:18N 43°26' E 004°53'0 0.0
2014-Dec-09 13:33N 43°26' E 004°53'0 0.0
2014-Dec-09 12:33N 43°26' E 004°53'0 0.0
2014-Dec-09 11:33N 43°26' E 004°53'0 0.0
2014-Dec-09 10:30N 43°26' E 004°53'0 0.0
2014-Dec-09 09:33N 43°26' E 004°53'0 0.0
2014-Dec-09 08:33N 43°26' E 004°53'0 0.0
2014-Dec-09 07:33N 43°26' E 004°53'0 0.0
2014-Dec-09 06:27N 43°26' E 004°53'0 0.0
2014-Dec-09 05:21N 43°26' E 004°53'0 0.0
2014-Dec-09 04:33N 43°26' E 004°53'0 0.0
2014-Dec-09 03:33N 43°26' E 004°53'0 0.0
2014-Dec-09 02:33N 43°26' E 004°53'0 0.0
2014-Dec-09 01:33N 43°26' E 004°53'0 0.0
2014-Dec-09 00:30N 43°26' E 004°53'0 0.0
2014-Dec-08 23:33N 43°26' E 004°53'0 0.0
2014-Dec-08 22:33N 43°26' E 004°53'0 0.0
2014-Dec-08 21:30N 43°26' E 004°53'0 0.0
2014-Dec-08 20:33N 43°26' E 004°53'0 0.0
2014-Dec-08 19:33N 43°26' E 004°53'0 0.0
2014-Dec-08 18:33N 43°26' E 004°53'0 0.0
2014-Dec-08 17:27N 43°26' E 004°53'0 0.0
2014-Dec-08 16:33N 43°26' E 004°53'0 0.0
2014-Dec-08 15:33N 43°26' E 004°53'0 0.0
2014-Dec-08 14:33N 43°26' E 004°53'0 0.0
2014-Dec-08 13:33N 43°26' E 004°53'0 0.0
2014-Dec-08 12:33N 43°26' E 004°53'1 1.3
2014-Dec-08 11:33N 43°24' E 004°53'2 1.9
2014-Dec-08 10:31N 43°24' E 004°56'0 0.0
2014-Dec-08 09:31N 43°24' E 004°56'  
Track history (hours):
 
Tides and Currents Weather Stations Pressure Air Temp Water Temp Dewpoint Dewpoint Depression Visibility Wind Speed Wind Dir Waves Ship Positions

Bosporus

Last reported at 2014-Dec-18 09:17 UTC. Time now 2014-Dec-18 13:30 UTC.
Position N 35°59' W 005°15'.

Length 100 m; draft 4.8 m.

Type: Cargo ship. MMSI: 304010802.

Date/timePositionNaut miles runAvg speedWind from/ knotsBaromVisibWave heightAir tempDewpointWater temp
2014-Dec-18 09:17N 35°59' W 005°15'  
2014-Dec-13 23:28N 36°01' W 005°22'399 9.5
2014-Dec-12 05:33N 39°57' E 001°26'1110.6
2014-Dec-12 04:33N 40°06' E 001°34'1110.6
2014-Dec-12 03:33N 40°15' E 001°41'1010.5
2014-Dec-12 02:33N 40°24' E 001°49'1010.4
2014-Dec-12 01:33N 40°33' E 001°56'1010.5
2014-Dec-12 00:33N 40°41' E 002°04'1110.6
2014-Dec-11 23:32N 40°50' E 002°12'1511.2
2014-Dec-11 22:10N 41°03' E 002°23'1811.0
2014-Dec-11 20:30N 41°18' E 002°37'9 9.8
2014-Dec-11 19:33N 41°25' E 002°45'1410.3
2014-Dec-11 18:14N 41°35' E 002°57'1910.2
2014-Dec-11 16:24N 41°50' E 003°12'9 9.5
2014-Dec-11 15:25N 41°59' E 003°16'2010.2
2014-Dec-11 13:25N 42°19' E 003°21'1513.5
2014-Dec-11 12:18N 42°33' E 003°17'8 8.2
2014-Dec-11 11:19N 42°41' E 003°15'810.7
2014-Dec-11 10:33N 42°50' E 003°13'1110.8
2014-Dec-11 09:33N 43°00' E 003°15'1010.2
2014-Dec-11 08:33N 43°08' E 003°24'9 9.0
2014-Dec-11 07:32N 43°11' E 003°35'1010.2
2014-Dec-11 06:33N 43°16' E 003°48'10 9.7
2014-Dec-11 05:34N 43°17' E 004°01'10 9.7
2014-Dec-11 04:30N 43°17' E 004°15'9 9.5
2014-Dec-11 03:33N 43°17' E 004°27'10 9.6
2014-Dec-11 02:33N 43°17' E 004°41'9 9.3
2014-Dec-11 01:33N 43°18' E 004°53'7 7.3
2014-Dec-11 00:33N 43°26' E 004°53'0 0.0
2014-Dec-10 23:33N 43°26' E 004°53'0 0.0
2014-Dec-10 22:33N 43°26' E 004°53'0 0.0
2014-Dec-10 21:33N 43°26' E 004°53'0 0.0
2014-Dec-10 20:24N 43°26' E 004°53'0 0.0
2014-Dec-10 19:15N 43°26' E 004°53'0 0.0
2014-Dec-10 15:27N 43°26' E 004°53'0 0.0
2014-Dec-10 14:33N 43°26' E 004°53'0 0.0
2014-Dec-10 13:15N 43°26' E 004°53'0 0.0
2014-Dec-10 12:27N 43°26' E 004°53'0 0.0
2014-Dec-10 11:33N 43°26' E 004°53'0 0.0
2014-Dec-10 10:27N 43°26' E 004°53'0 0.0
2014-Dec-10 09:21N 43°26' E 004°53'0 0.0
2014-Dec-10 08:30N 43°26' E 004°53'0 0.0
2014-Dec-10 07:33N 43°26' E 004°53'0 0.0
2014-Dec-10 06:33N 43°26' E 004°53'0 0.0
2014-Dec-10 05:33N 43°26' E 004°53'0 0.0
2014-Dec-10 04:33N 43°26' E 004°53'0 0.0
2014-Dec-10 03:33N 43°26' E 004°53'0 0.0
2014-Dec-10 02:33N 43°26' E 004°53'0 0.0
2014-Dec-10 01:09N 43°26' E 004°53'0 0.0
2014-Dec-10 00:30N 43°26' E 004°53'0 0.0
2014-Dec-09 23:33N 43°26' E 004°53'0 0.0
2014-Dec-09 22:33N 43°26' E 004°53'0 0.0
2014-Dec-09 21:33N 43°26' E 004°53'0 0.0
2014-Dec-09 20:30N 43°26' E 004°53'0 0.0
2014-Dec-09 19:27N 43°26' E 004°53'0 0.0
2014-Dec-09 18:09N 43°26' E 004°53'0 0.0
2014-Dec-09 17:33N 43°26' E 004°53'0 0.0
2014-Dec-09 16:33N 43°26' E 004°53'0 0.0
2014-Dec-09 15:33N 43°26' E 004°53'0 0.0
2014-Dec-09 14:18N 43°26' E 004°53'0 0.0
2014-Dec-09 13:33N 43°26' E 004°53'0 0.0
2014-Dec-09 12:33N 43°26' E 004°53'0 0.0
2014-Dec-09 11:33N 43°26' E 004°53'0 0.0
2014-Dec-09 10:30N 43°26' E 004°53'0 0.0
2014-Dec-09 09:33N 43°26' E 004°53'0 0.0
2014-Dec-09 08:33N 43°26' E 004°53'0 0.0
2014-Dec-09 07:33N 43°26' E 004°53'0 0.0
2014-Dec-09 06:27N 43°26' E 004°53'0 0.0
2014-Dec-09 05:21N 43°26' E 004°53'0 0.0
2014-Dec-09 04:33N 43°26' E 004°53'0 0.0
2014-Dec-09 03:33N 43°26' E 004°53'0 0.0
2014-Dec-09 02:33N 43°26' E 004°53'0 0.0
2014-Dec-09 01:33N 43°26' E 004°53'0 0.0
2014-Dec-09 00:30N 43°26' E 004°53'0 0.0
2014-Dec-08 23:33N 43°26' E 004°53'0 0.0
2014-Dec-08 22:33N 43°26' E 004°53'0 0.0
2014-Dec-08 21:30N 43°26' E 004°53'0 0.0
2014-Dec-08 20:33N 43°26' E 004°53'0 0.0
2014-Dec-08 19:33N 43°26' E 004°53'0 0.0
2014-Dec-08 18:33N 43°26' E 004°53'0 0.0
2014-Dec-08 17:27N 43°26' E 004°53'0 0.0
2014-Dec-08 16:33N 43°26' E 004°53'0 0.0
2014-Dec-08 15:33N 43°26' E 004°53'0 0.0
2014-Dec-08 14:33N 43°26' E 004°53'0 0.0
2014-Dec-08 13:33N 43°26' E 004°53'0 0.0
2014-Dec-08 12:33N 43°26' E 004°53'1 1.3
2014-Dec-08 11:33N 43°24' E 004°53'2 1.9
2014-Dec-08 10:31N 43°24' E 004°56'0 0.0
2014-Dec-08 09:31N 43°24' E 004°56'  

Dump ship's entire track history